createdAt,value
2019-04-20T00:04:20.716Z,102620.45
2019-04-20T00:09:24.635Z,102579.66
2019-04-20T00:14:29.628Z,102607.62
2019-04-20T00:19:37.481Z,102604.84
2019-04-20T00:24:42.323Z,102601.77
2019-04-20T00:30:05.438Z,102598.34
2019-04-20T00:34:53.941Z,102597.73
2019-04-20T00:39:59.469Z,102588.92
2019-04-20T00:45:12.024Z,102585.23
2019-04-20T00:50:28.345Z,102591.41
2019-04-20T00:55:17.026Z,102589.66
2019-04-20T01:00:37.105Z,102586.05
2019-04-20T01:05:55.747Z,102577.95
2019-04-20T01:10:47.222Z,102584.19
2019-04-20T01:15:55.372Z,102583.22
2019-04-20T01:20:53.659Z,102568.70
2019-04-20T01:26:03.977Z,102571.11
2019-04-20T01:31:14.696Z,102564.75
2019-04-20T01:36:34.967Z,102561.95
2019-04-20T01:41:16.122Z,102564.83
2019-04-20T01:46:23.499Z,102559.69
2019-04-20T01:51:30.498Z,102562.91
2019-04-20T01:56:47.451Z,102561.23
2019-04-20T02:02:14.295Z,102557.77
2019-04-20T02:07:18.294Z,102561.97
2019-04-20T02:12:26.082Z,102562.86
2019-04-20T02:17:36.950Z,102557.17
2019-04-20T02:22:46.472Z,102552.98
2019-04-20T02:27:45.620Z,102560.70
2019-04-20T02:33:28.888Z,102565.22
2019-04-20T02:49:12.938Z,102566.90
2019-04-20T02:54:18.819Z,102557.39
2019-04-20T02:59:45.029Z,102559.91
2019-04-20T03:03:52.648Z,102557.23
2019-04-20T03:09:15.129Z,102557.37
2019-04-20T03:14:18.599Z,102560.03
2019-04-20T03:19:20.679Z,102563.20
2019-04-20T03:24:38.742Z,102566.34
2019-04-20T03:30:03.713Z,102564.45
2019-04-20T03:35:12.172Z,102566.59
2019-04-20T03:40:09.894Z,102567.58
2019-04-20T03:45:06.005Z,102565.59
2019-04-20T03:50:33.236Z,102566.88
2019-04-20T03:55:51.348Z,102568.67
2019-04-20T04:00:59.755Z,102567.12
2019-04-20T04:06:07.838Z,102572.57
2019-04-20T04:11:16.256Z,102567.53
2019-04-20T04:16:08.807Z,102575.59
2019-04-20T04:21:18.261Z,102567.74
2019-04-20T04:26:34.354Z,102574.38
2019-04-20T04:31:45.592Z,102567.05
2019-04-20T04:36:50.200Z,102546.46
2019-04-20T04:42:01.831Z,102573.74
2019-04-20T04:46:46.435Z,102561.94
2019-04-20T04:51:54.936Z,102574.19
2019-04-20T04:56:52.578Z,102581.80
2019-04-20T05:01:58.373Z,102579.13
2019-04-20T05:07:16.811Z,102583.30
2019-04-20T05:12:14.982Z,102583.58
2019-04-20T05:17:34.274Z,102585.13
2019-04-20T05:22:46.873Z,102593.26
2019-04-20T05:27:56.415Z,102587.53
2019-04-20T05:32:51.443Z,102579.18
2019-04-20T05:38:15.822Z,102578.07
2019-04-20T05:43:27.504Z,102583.80
2019-04-20T05:48:33.652Z,102583.33
2019-04-20T05:53:45.757Z,102575.36
2019-04-20T05:58:52.327Z,102568.73
2019-04-20T06:03:49.014Z,102570.24
2019-04-20T06:09:08.553Z,102569.23
2019-04-20T06:14:08.190Z,102571.89
2019-04-20T06:24:43.779Z,102578.55
2019-04-20T06:29:41.315Z,102582.66
2019-04-20T06:35:02.727Z,102581.87
2019-04-20T06:39:54.651Z,102576.95
2019-04-20T06:45:02.057Z,102581.74
2019-04-20T06:50:12.792Z,102578.61
2019-04-20T06:55:14.166Z,102576.78
2019-04-20T07:00:25.733Z,102576.23
2019-04-20T07:05:34.668Z,102579.13
2019-04-20T07:10:40.641Z,102580.98
2019-04-20T07:15:54.188Z,102584.71
2019-04-20T07:21:23.101Z,102584.50
2019-04-20T07:26:32.231Z,102580.31
2019-04-20T07:31:30.847Z,102578.16
2019-04-20T07:36:40.449Z,102574.56
2019-04-20T07:41:57.244Z,102576.42
2019-04-20T07:47:01.529Z,102587.12
2019-04-20T07:51:39.120Z,102586.98
2019-04-20T07:57:01.828Z,102585.68
2019-04-20T08:02:35.526Z,102589.91
2019-04-20T08:07:13.663Z,102585.28
2019-04-20T08:12:56.966Z,102589.80
2019-04-20T08:18:01.178Z,102589.80
2019-04-20T08:23:12.914Z,102584.77
2019-04-20T08:28:21.404Z,102584.44
2019-04-20T08:33:44.745Z,102578.88
2019-04-20T08:39:08.278Z,102577.74
2019-04-20T08:43:58.702Z,102571.94
2019-04-20T08:48:55.898Z,102577.27
2019-04-20T08:54:03.319Z,102567.62
2019-04-20T08:58:50.622Z,102566.05
2019-04-20T09:04:04.716Z,102562.59
2019-04-20T09:09:34.740Z,102564.33
2019-04-20T09:14:21.346Z,102553.77
2019-04-20T09:19:36.670Z,102553.16
2019-04-20T09:24:51.493Z,102541.64
2019-04-20T09:29:54.694Z,102538.30
2019-04-20T09:35:01.072Z,102528.05
2019-04-20T09:40:32.200Z,102525.98
2019-04-20T09:45:27.753Z,102520.52
2019-04-20T09:50:40.920Z,102517.70
2019-04-20T09:55:42.906Z,102530.96
2019-04-20T10:00:59.524Z,102519.98
2019-04-20T10:05:49.658Z,102519.61
2019-04-20T10:10:54.395Z,102518.45
2019-04-20T10:16:00.023Z,102508.95
2019-04-20T10:21:05.481Z,102505.47
2019-04-20T10:26:09.717Z,102504.80
2019-04-20T10:31:14.728Z,102488.98
2019-04-20T10:36:37.586Z,102495.39
2019-04-20T10:41:49.171Z,102486.62
2019-04-20T10:46:49.063Z,102479.48
2019-04-20T10:51:53.650Z,102477.67
2019-04-20T10:56:57.877Z,102476.78
2019-04-20T11:02:02.077Z,102471.23
2019-04-20T11:07:06.367Z,102478.61
2019-04-20T11:12:10.756Z,102472.00
2019-04-20T11:17:16.223Z,102462.98
2019-04-20T11:22:22.137Z,102461.05
2019-04-20T11:27:27.956Z,102455.92
2019-04-20T11:32:32.297Z,102451.59
2019-04-20T11:37:37.312Z,102446.70
2019-04-20T11:42:41.701Z,102439.75
2019-04-20T11:47:47.293Z,102439.16
2019-04-20T11:52:52.988Z,102444.41
2019-04-20T11:57:58.275Z,102433.59
2019-04-20T12:03:31.123Z,102430.72
2019-04-20T12:08:29.273Z,102417.70
2019-04-20T12:13:34.508Z,102418.90
2019-04-20T12:18:38.874Z,102414.29
2019-04-20T12:23:44.430Z,102413.81
2019-04-20T12:28:49.714Z,102399.34
2019-04-20T12:33:54.778Z,102393.03
2019-04-20T12:38:59.281Z,102375.68
2019-04-20T12:44:03.875Z,102381.05
2019-04-20T12:49:09.430Z,102374.41
2019-04-20T12:54:14.511Z,102361.33
2019-04-20T12:59:18.831Z,102357.14
2019-04-20T13:04:23.046Z,102360.95
2019-04-20T13:09:34.576Z,102349.08
2019-04-20T13:15:08.550Z,102343.48
2019-04-20T13:20:14.117Z,102341.75
2019-04-20T13:25:19.075Z,102342.36
2019-04-20T13:30:23.904Z,102332.82
2019-04-20T13:35:28.262Z,102326.20
2019-04-20T13:40:33.440Z,102320.61
2019-04-20T13:45:37.685Z,102316.98
2019-04-20T13:50:42.299Z,102312.23
2019-04-20T13:55:47.711Z,102302.89
2019-04-20T14:01:08.500Z,102296.58
2019-04-20T14:06:14.308Z,102290.45
2019-04-20T14:11:18.626Z,102283.95
2019-04-20T14:16:23.241Z,102287.92
2019-04-20T14:21:27.919Z,102279.11
2019-04-20T14:26:32.995Z,102268.69
2019-04-20T14:31:38.084Z,102262.43
2019-04-20T14:36:42.272Z,102254.04
2019-04-20T14:41:46.644Z,102253.59
2019-04-20T14:46:51.686Z,102245.79
2019-04-20T14:51:58.104Z,102237.42
2019-04-20T14:57:03.322Z,102240.91
2019-04-20T15:02:12.968Z,102230.34
2019-04-20T15:07:18.368Z,102228.42
2019-04-20T15:12:35.970Z,102227.45
2019-04-20T15:17:37.620Z,102229.55
2019-04-20T15:22:45.559Z,102201.38
2019-04-20T15:27:50.077Z,102218.88
2019-04-20T15:32:54.678Z,102221.64
2019-04-20T15:37:59.466Z,102218.80
2019-04-20T15:43:11.797Z,102219.01
2019-04-20T15:48:10.007Z,102211.34
2019-04-20T15:53:15.599Z,102206.54
2019-04-20T15:58:20.668Z,102205.75
2019-04-20T16:03:29.701Z,102204.67
2019-04-20T16:08:41.950Z,102205.22
2019-04-20T16:13:50.398Z,102206.52
2019-04-20T16:18:52.831Z,102198.75
2019-04-20T16:24:01.938Z,102198.45
2019-04-20T16:29:06.783Z,102187.95
2019-04-20T16:34:13.592Z,102188.48
2019-04-20T16:39:18.483Z,102184.27
2019-04-20T16:44:23.138Z,102179.76
2019-04-20T16:49:28.706Z,102179.45
2019-04-20T16:54:33.010Z,102180.47
2019-04-20T16:59:40.112Z,102177.35
2019-04-20T17:04:43.220Z,102182.73
2019-04-20T17:09:48.027Z,102179.27
2019-04-20T17:14:53.589Z,102173.50
2019-04-20T17:19:57.887Z,102181.77
2019-04-20T17:25:02.231Z,102155.05
2019-04-20T17:30:27.291Z,102184.01
2019-04-20T17:35:43.455Z,102182.41
2019-04-20T17:40:55.904Z,102183.88
2019-04-20T17:45:55.705Z,102186.13
2019-04-20T17:51:15.361Z,102185.94
2019-04-20T17:55:57.179Z,102191.33
2019-04-20T18:01:26.835Z,102182.75
2019-04-20T18:06:45.322Z,102176.16
2019-04-20T18:11:40.345Z,102183.55
2019-04-20T18:16:56.587Z,102179.72
2019-04-20T18:21:55.944Z,102183.47
2019-04-20T18:27:26.431Z,102183.52
2019-04-20T18:32:31.500Z,102165.70
2019-04-20T18:37:36.460Z,102195.61
2019-04-20T18:42:43.785Z,102198.27
2019-04-20T18:48:07.852Z,102207.24
2019-04-20T18:52:53.944Z,102204.88
2019-04-20T18:57:59.436Z,102207.75
2019-04-20T19:03:11.998Z,102208.31
2019-04-20T19:08:13.587Z,102209.19
2019-04-20T19:13:29.267Z,102205.69
2019-04-20T19:18:49.496Z,102206.73
2019-04-20T19:23:53.442Z,102207.73
2019-04-20T19:28:53.906Z,102216.34
2019-04-20T19:34:13.116Z,102215.75
2019-04-20T19:39:17.261Z,102219.44
2019-04-20T19:44:17.161Z,102218.09
2019-04-20T19:49:25.386Z,102213.37
2019-04-20T19:54:41.472Z,102208.95
2019-04-20T19:59:33.862Z,102208.95
2019-04-20T20:04:32.237Z,102204.65
2019-04-20T20:09:41.853Z,102205.54
2019-04-20T20:14:46.010Z,102204.84
2019-04-20T20:20:14.934Z,102213.62
2019-04-20T20:24:54.898Z,102175.98
2019-04-20T20:30:10.234Z,102212.00
2019-04-20T20:35:14.070Z,102212.19
2019-04-20T20:40:18.981Z,102211.47
2019-04-20T20:45:26.236Z,102223.56
2019-04-20T20:50:42.876Z,102220.94
2019-04-20T20:55:40.232Z,102223.48
2019-04-20T21:00:53.190Z,102230.28
2019-04-20T21:05:42.630Z,102226.83
2019-04-20T21:10:48.093Z,102227.75
2019-04-20T21:16:02.418Z,102225.27
2019-04-20T21:21:15.093Z,102231.52
2019-04-20T21:26:12.736Z,102227.06
2019-04-20T21:31:20.412Z,102225.45
2019-04-20T21:36:25.922Z,102223.40
2019-04-20T21:41:27.191Z,102224.66
2019-04-20T21:46:39.912Z,102222.78
2019-04-20T21:51:48.974Z,102215.97
2019-04-20T21:56:49.847Z,102214.84
2019-04-20T22:01:58.582Z,102213.82
2019-04-20T22:06:56.202Z,102206.58
2019-04-20T22:12:00.534Z,102202.64
2019-04-20T22:17:05.474Z,102193.84
2019-04-20T22:22:18.574Z,102195.09
2019-04-20T22:27:21.150Z,102191.47
2019-04-20T22:32:22.585Z,102184.64
2019-04-20T22:37:35.304Z,102187.02
2019-04-20T22:42:47.473Z,102185.87
2019-04-20T22:47:46.236Z,102182.02
2019-04-20T22:53:06.721Z,102177.34
2019-04-20T22:58:04.579Z,102173.61
2019-04-20T23:03:02.969Z,102179.92
2019-04-20T23:08:08.585Z,102182.28
2019-04-20T23:13:13.749Z,102174.19
2019-04-20T23:18:18.189Z,102161.98
2019-04-20T23:23:26.089Z,102159.37
2019-04-20T23:28:29.141Z,102148.50
2019-04-20T23:33:33.798Z,102153.46
2019-04-20T23:38:38.984Z,102137.95
2019-04-20T23:43:54.896Z,102136.29
2019-04-20T23:49:22.124Z,102136.89
2019-04-20T23:54:25.590Z,102142.05
2019-04-20T23:59:32.395Z,102131.34
